createdAt,value
2022-08-19T00:02:20.870Z,5.90
2022-08-19T00:05:23.826Z,4.87
2022-08-19T00:08:26.761Z,7.47
2022-08-19T00:11:29.602Z,7.30
2022-08-19T00:14:32.682Z,5.75
2022-08-19T00:17:35.696Z,4.68
2022-08-19T00:20:45.182Z,3.70
2022-08-19T00:23:48.356Z,6.17
2022-08-19T00:26:51.409Z,8.98
2022-08-19T00:29:54.360Z,7.80
2022-08-19T00:32:57.484Z,4.65
2022-08-19T00:36:01.512Z,6.95
2022-08-19T00:39:04.680Z,6.27
2022-08-19T00:42:07.554Z,5.90
2022-08-19T00:45:13.735Z,4.90
2022-08-19T00:48:17.898Z,3.78
2022-08-19T00:51:20.478Z,5.47
2022-08-19T00:54:28.223Z,4.37
2022-08-19T00:57:36.746Z,5.85
2022-08-19T01:00:39.695Z,6.53
2022-08-19T01:03:55.188Z,4.43
2022-08-19T01:07:02.515Z,6.53
2022-08-19T01:10:07.150Z,5.60
2022-08-19T01:13:10.522Z,9.82
2022-08-19T01:16:13.410Z,4.53
2022-08-19T01:19:29.178Z,5.50
2022-08-19T01:22:33.997Z,9.18
2022-08-19T01:25:43.459Z,5.93
2022-08-19T01:28:51.897Z,5.53
2022-08-19T01:31:55.203Z,6.00
2022-08-19T01:34:57.690Z,5.20
2022-08-19T01:38:09.327Z,5.60
2022-08-19T01:41:13.434Z,6.77
2022-08-19T01:44:18.829Z,5.18
2022-08-19T01:47:21.785Z,6.50
2022-08-19T01:50:24.961Z,3.67
2022-08-19T01:53:33.610Z,6.00
2022-08-19T01:56:36.690Z,7.97
2022-08-19T01:59:40.763Z,5.43
2022-08-19T02:02:44.204Z,5.18
2022-08-19T02:05:47.201Z,5.40
2022-08-19T02:08:50.219Z,4.95
2022-08-19T02:11:54.618Z,5.93
2022-08-19T02:14:57.202Z,4.78
2022-08-19T02:18:00.313Z,10.65
2022-08-19T02:21:02.843Z,8.75
2022-08-19T02:24:05.872Z,8.07
2022-08-19T02:27:08.391Z,3.83
2022-08-19T02:30:17.104Z,5.82
2022-08-19T02:33:19.705Z,8.38
2022-08-19T02:36:23.119Z,5.47
2022-08-19T02:39:25.639Z,6.62
2022-08-19T02:42:28.674Z,6.00
2022-08-19T02:45:35.604Z,3.47
2022-08-19T02:48:43.348Z,6.53
2022-08-19T02:51:47.217Z,4.00
2022-08-19T02:54:50.695Z,5.72
2022-08-19T02:57:53.214Z,3.70
2022-08-19T03:00:57.062Z,5.55
2022-08-19T03:04:01.793Z,8.95
2022-08-19T03:07:10.738Z,6.43
2022-08-19T03:10:14.376Z,7.03
2022-08-19T03:13:18.890Z,4.47
2022-08-19T03:16:24.432Z,9.45
2022-08-19T03:19:28.563Z,8.18
2022-08-19T03:22:31.116Z,6.78
2022-08-19T03:25:39.171Z,6.70
2022-08-19T03:28:42.971Z,7.70
2022-08-19T03:31:53.720Z,9.63
2022-08-19T03:34:56.355Z,10.27
2022-08-19T03:38:01.938Z,7.37
2022-08-19T03:41:07.416Z,6.87
2022-08-19T03:44:16.611Z,6.40
2022-08-19T03:47:21.246Z,7.25
2022-08-19T03:50:25.407Z,11.57
2022-08-19T03:53:29.213Z,5.93
2022-08-19T03:56:32.500Z,5.60
2022-08-19T03:59:36.762Z,6.33
2022-08-19T04:02:39.602Z,6.87
2022-08-19T04:05:42.540Z,8.15
2022-08-19T04:08:46.881Z,7.93
2022-08-19T04:11:54.727Z,9.02
2022-08-19T04:14:57.298Z,6.00
2022-08-19T04:18:00.065Z,6.68
2022-08-19T04:21:02.560Z,10.93
2022-08-19T04:24:05.608Z,5.43
2022-08-19T04:27:08.184Z,7.75
2022-08-19T04:30:11.528Z,9.20
2022-08-19T04:33:16.595Z,7.43
2022-08-19T04:36:30.225Z,8.35
2022-08-19T04:40:11.482Z,9.32
2022-08-19T04:43:15.734Z,11.48
2022-08-19T04:46:39.283Z,10.37
2022-08-19T04:49:41.197Z,8.57
2022-08-19T04:52:43.745Z,8.63
2022-08-19T04:55:46.613Z,10.25
2022-08-19T04:58:51.635Z,11.10
2022-08-19T05:01:54.462Z,13.10
2022-08-19T05:05:01.494Z,9.73
2022-08-19T05:08:04.868Z,11.32
2022-08-19T05:11:29.336Z,9.35
2022-08-19T05:14:32.274Z,12.32
2022-08-19T05:17:38.757Z,8.07
2022-08-19T05:21:00.984Z,8.30
2022-08-19T05:24:08.783Z,17.40
2022-08-19T05:27:11.648Z,7.05
2022-08-19T05:30:14.499Z,10.98
2022-08-19T05:33:18.194Z,8.23
2022-08-19T05:36:21.074Z,10.88
2022-08-19T05:39:26.511Z,8.40
2022-08-19T05:42:29.124Z,10.77
2022-08-19T05:45:32.099Z,10.23
2022-08-19T05:48:36.073Z,10.27
2022-08-19T05:51:39.044Z,11.70
2022-08-19T05:54:43.613Z,13.52
2022-08-19T05:57:46.527Z,11.90
2022-08-19T06:00:49.084Z,11.73
2022-08-19T06:03:52.145Z,11.20
2022-08-19T06:06:55.126Z,9.60
2022-08-19T06:10:00.134Z,10.45
2022-08-19T06:13:03.976Z,10.70
2022-08-19T06:16:06.944Z,13.20
2022-08-19T06:19:12.921Z,11.83
2022-08-19T06:22:15.748Z,9.73
2022-08-19T06:25:18.660Z,13.07
2022-08-19T06:28:22.381Z,10.30
2022-08-19T06:31:28.372Z,9.70
2022-08-19T06:34:33.979Z,12.77
2022-08-19T06:37:39.773Z,10.48
2022-08-19T06:43:54.141Z,11.80
2022-08-19T06:46:59.259Z,9.10
2022-08-19T06:50:05.429Z,11.10
2022-08-19T06:53:08.550Z,10.13
2022-08-19T06:56:11.085Z,10.70
2022-08-19T06:59:18.809Z,12.23
2022-08-19T07:02:21.935Z,15.15
2022-08-19T07:05:25.073Z,10.60
2022-08-19T07:08:29.311Z,10.93
2022-08-19T07:11:34.161Z,8.93
2022-08-19T07:14:38.592Z,6.70
2022-08-19T07:17:42.238Z,7.45
2022-08-19T07:20:44.909Z,10.80
2022-08-19T07:23:48.979Z,11.27
2022-08-19T07:26:53.194Z,12.73
2022-08-19T07:29:57.609Z,12.30
2022-08-19T07:33:03.640Z,13.70
2022-08-19T07:36:08.932Z,10.77
2022-08-19T07:39:15.294Z,11.75
2022-08-19T07:42:19.098Z,15.63
2022-08-19T07:45:21.646Z,10.82
2022-08-19T07:48:26.396Z,8.95
2022-08-19T07:51:36.349Z,12.87
2022-08-19T07:54:40.255Z,10.70
2022-08-19T08:00:51.876Z,8.07
2022-08-19T08:04:16.799Z,11.05
2022-08-19T08:07:38.658Z,8.57
2022-08-19T08:10:42.082Z,10.50
2022-08-19T08:13:44.950Z,13.10
2022-08-19T08:16:47.835Z,10.50
2022-08-19T08:19:51.910Z,9.65
2022-08-19T08:23:13.208Z,8.97
2022-08-19T08:26:17.029Z,10.63
2022-08-19T08:29:22.203Z,11.98
2022-08-19T08:32:28.602Z,12.18
2022-08-19T08:35:31.431Z,13.40
2022-08-19T08:38:39.674Z,8.77
2022-08-19T08:41:58.699Z,9.02
2022-08-19T08:45:06.028Z,11.27
2022-08-19T08:48:24.245Z,12.50
2022-08-19T08:51:34.848Z,12.18
2022-08-19T08:54:48.912Z,10.60
2022-08-19T08:58:07.144Z,11.85
2022-08-19T09:01:13.583Z,12.15
2022-08-19T09:04:16.610Z,12.65
2022-08-19T09:08:19.834Z,9.93
2022-08-19T09:11:49.724Z,13.03
2022-08-19T09:15:14.797Z,12.55
2022-08-19T09:18:19.293Z,10.25
2022-08-19T09:21:30.237Z,10.63
2022-08-19T09:24:33.159Z,9.63
2022-08-19T09:27:43.132Z,10.53
2022-08-19T09:30:56.589Z,10.45
2022-08-19T09:34:00.394Z,9.90
2022-08-19T09:37:04.138Z,9.52
2022-08-19T09:40:08.096Z,11.70
2022-08-19T09:43:13.331Z,9.00
2022-08-19T09:46:19.070Z,8.10
2022-08-19T09:49:24.997Z,8.43
2022-08-19T09:52:32.843Z,10.38
2022-08-19T09:55:35.500Z,9.40
2022-08-19T09:58:39.171Z,11.53
2022-08-19T10:01:41.762Z,11.07
2022-08-19T10:05:07.051Z,8.88
2022-08-19T10:08:13.324Z,10.07
2022-08-19T10:11:28.710Z,11.27
2022-08-19T10:14:40.563Z,10.00
2022-08-19T10:17:48.209Z,8.55
2022-08-19T10:21:19.281Z,10.40
2022-08-19T10:24:25.261Z,7.30
2022-08-19T10:27:28.063Z,9.25
2022-08-19T10:30:36.997Z,15.00
2022-08-19T10:33:53.475Z,8.98
2022-08-19T10:37:00.595Z,9.93
2022-08-19T10:40:07.004Z,8.85
2022-08-19T10:43:09.894Z,11.20
2022-08-19T10:46:16.553Z,11.20
2022-08-19T10:49:25.159Z,11.68
2022-08-19T10:52:38.824Z,10.55
2022-08-19T10:56:00.847Z,9.45
2022-08-19T10:59:04.364Z,12.20
2022-08-19T11:02:13.977Z,9.93
2022-08-19T11:05:16.766Z,10.05
2022-08-19T11:08:23.447Z,8.95
2022-08-19T11:11:27.389Z,11.27
2022-08-19T11:14:32.189Z,9.10
2022-08-19T11:17:37.045Z,9.77
2022-08-19T11:20:40.446Z,10.77
2022-08-19T11:23:43.035Z,8.60
2022-08-19T11:26:46.012Z,11.88
2022-08-19T11:29:48.583Z,9.27
2022-08-19T11:32:51.408Z,9.10
2022-08-19T11:35:55.204Z,7.80
2022-08-19T11:38:58.108Z,7.72
2022-08-19T11:42:02.308Z,9.68
2022-08-19T11:45:05.274Z,7.65
2022-08-19T11:48:07.859Z,10.17
2022-08-19T11:51:13.258Z,10.25
2022-08-19T11:54:17.398Z,11.05
2022-08-19T11:57:20.795Z,12.20
2022-08-19T12:00:23.602Z,7.45
2022-08-19T12:03:26.871Z,8.67
2022-08-19T12:06:33.523Z,8.40
2022-08-19T12:09:36.378Z,23.87
2022-08-19T12:12:45.898Z,11.27
2022-08-19T12:15:57.234Z,12.73
2022-08-19T12:19:04.607Z,10.80
2022-08-19T12:22:08.656Z,8.20
2022-08-19T12:25:12.264Z,5.75
2022-08-19T12:28:15.078Z,10.40
2022-08-19T12:31:18.287Z,8.43
2022-08-19T12:34:21.537Z,5.97
2022-08-19T12:37:24.117Z,8.27
2022-08-19T12:40:27.554Z,7.62
2022-08-19T12:43:31.433Z,6.68
2022-08-19T12:46:34.329Z,9.88
2022-08-19T12:49:52.544Z,11.17
2022-08-19T12:52:59.112Z,12.90
2022-08-19T12:56:01.694Z,11.50
2022-08-19T12:59:05.817Z,10.52
2022-08-19T13:02:08.811Z,12.43
2022-08-19T13:05:14.261Z,9.57
2022-08-19T13:08:18.056Z,11.38
2022-08-19T13:11:22.065Z,14.45
2022-08-19T13:14:24.677Z,12.90
2022-08-19T13:17:29.939Z,10.93
2022-08-19T13:20:32.444Z,7.80
2022-08-19T13:23:36.829Z,11.30
2022-08-19T13:26:39.414Z,10.13
2022-08-19T13:30:01.596Z,13.27
2022-08-19T13:33:16.050Z,9.35
2022-08-19T13:36:19.271Z,11.37
2022-08-19T13:39:24.015Z,12.85
2022-08-19T13:42:26.905Z,11.45
2022-08-19T13:45:31.002Z,10.93
2022-08-19T13:48:33.920Z,10.25
2022-08-19T13:51:38.373Z,8.70
2022-08-19T13:54:43.387Z,9.13
2022-08-19T13:57:46.635Z,7.87
2022-08-19T14:12:56.865Z,12.35
2022-08-19T14:15:59.963Z,10.40
2022-08-19T14:19:03.008Z,9.68
2022-08-19T14:22:06.561Z,9.93
2022-08-19T14:25:11.909Z,12.73
2022-08-19T14:28:14.892Z,13.07
2022-08-19T14:31:20.145Z,10.27
2022-08-19T14:34:23.239Z,14.27
2022-08-19T14:53:11.911Z,8.63
2022-08-19T14:56:21.434Z,13.15
2022-08-19T14:59:24.565Z,10.97
2022-08-19T15:02:34.773Z,6.47
2022-08-19T15:05:37.838Z,8.07
2022-08-19T15:08:44.122Z,9.13
2022-08-19T15:11:46.694Z,11.25
2022-08-19T15:14:55.811Z,7.67
2022-08-19T15:18:03.450Z,11.45
2022-08-19T15:21:06.388Z,9.10
2022-08-19T15:24:10.328Z,8.55
2022-08-19T15:27:13.891Z,11.50
2022-08-19T15:30:22.403Z,9.10
2022-08-19T15:33:26.040Z,8.43
2022-08-19T15:36:28.597Z,7.43
2022-08-19T15:39:32.250Z,9.75
2022-08-19T15:42:37.422Z,8.25
2022-08-19T15:45:45.222Z,8.23
2022-08-19T16:16:47.342Z,12.45
2022-08-19T16:19:52.666Z,9.68
2022-08-19T16:22:58.514Z,5.07
2022-08-19T16:26:02.011Z,9.30
2022-08-19T16:29:09.047Z,14.07
2022-08-19T16:32:16.117Z,11.18
2022-08-19T16:35:18.689Z,9.13
2022-08-19T16:38:22.808Z,8.35
2022-08-19T16:41:25.439Z,5.75
2022-08-19T16:44:29.758Z,9.63
2022-08-19T16:47:32.467Z,6.87
2022-08-19T16:50:48.838Z,9.88
2022-08-19T16:53:53.280Z,7.85
2022-08-19T16:56:56.186Z,7.68
2022-08-19T16:59:58.865Z,8.13
2022-08-19T17:03:14.612Z,11.43
2022-08-19T17:06:22.221Z,7.03
2022-08-19T17:09:26.030Z,8.18
2022-08-19T17:12:31.595Z,12.37
2022-08-19T17:15:35.177Z,8.87
2022-08-19T17:18:37.703Z,12.98
2022-08-19T17:21:40.895Z,8.80
2022-08-19T17:24:43.392Z,8.27
2022-08-19T17:27:46.192Z,10.05
2022-08-19T17:30:48.926Z,10.57
2022-08-19T17:33:52.657Z,8.98
2022-08-19T17:36:57.701Z,9.05
2022-08-19T17:40:02.777Z,11.65
2022-08-19T17:43:07.453Z,7.60
2022-08-19T17:46:12.946Z,9.00
2022-08-19T17:49:20.755Z,8.30
2022-08-19T17:52:23.962Z,8.15
2022-08-19T17:55:26.990Z,9.40
2022-08-19T17:58:29.812Z,7.25
2022-08-19T18:01:52.760Z,11.63
2022-08-19T18:04:55.955Z,9.13
2022-08-19T18:08:00.026Z,12.13
2022-08-19T18:11:03.803Z,8.52
2022-08-19T18:14:06.386Z,9.63
2022-08-19T18:17:14.290Z,8.43
2022-08-19T18:20:17.888Z,10.77
2022-08-19T18:23:43.827Z,10.48
2022-08-19T18:26:45.400Z,14.35
2022-08-19T18:29:48.218Z,9.18
2022-08-19T18:32:53.005Z,7.47
2022-08-19T18:35:55.784Z,7.95
2022-08-19T18:39:17.279Z,12.63
2022-08-19T18:42:39.999Z,13.57
2022-08-19T18:46:02.154Z,10.45
2022-08-19T18:49:05.553Z,13.03
2022-08-19T18:52:08.119Z,12.85
2022-08-19T18:55:11.730Z,11.57
2022-08-19T18:58:15.104Z,11.12
2022-08-19T19:01:22.208Z,12.35
2022-08-19T19:04:34.203Z,10.80
2022-08-19T19:07:36.963Z,13.10
2022-08-19T19:10:41.176Z,11.55
2022-08-19T19:13:47.053Z,10.32
2022-08-19T19:16:49.608Z,9.93
2022-08-19T19:19:52.979Z,15.83
2022-08-19T19:22:56.049Z,12.30
2022-08-19T19:26:01.719Z,11.65
2022-08-19T19:29:04.926Z,14.32
2022-08-19T19:32:10.825Z,11.48
2022-08-19T19:35:13.513Z,13.90
2022-08-19T19:38:16.345Z,9.48
2022-08-19T19:41:24.229Z,15.52
2022-08-19T19:44:30.742Z,13.43
2022-08-19T19:47:35.107Z,14.52
2022-08-19T19:50:37.914Z,12.40
2022-08-19T19:53:41.227Z,13.60
2022-08-19T19:56:45.047Z,15.90
2022-08-19T19:59:51.732Z,15.75
2022-08-19T20:02:56.010Z,12.15
2022-08-19T20:05:59.458Z,11.47
2022-08-19T20:09:08.228Z,14.25
2022-08-19T20:12:11.039Z,14.80
2022-08-19T20:15:14.903Z,12.07
2022-08-19T20:18:17.739Z,17.12
2022-08-19T20:21:20.454Z,12.47
2022-08-19T20:24:32.621Z,11.30
2022-08-19T20:27:40.131Z,13.48
2022-08-19T20:30:46.342Z,10.55
2022-08-19T20:33:49.903Z,12.70
2022-08-19T20:36:52.863Z,15.23
2022-08-19T20:39:55.401Z,11.00
2022-08-19T20:42:58.266Z,13.18
2022-08-19T20:46:03.427Z,10.65
2022-08-19T20:49:06.291Z,11.15
2022-08-19T20:52:08.800Z,11.33
2022-08-19T20:55:12.748Z,13.75
2022-08-19T20:58:16.908Z,11.80
2022-08-19T21:01:19.822Z,9.90
2022-08-19T21:04:22.634Z,18.23
2022-08-19T21:07:25.501Z,12.63
2022-08-19T21:10:42.506Z,16.17
2022-08-19T21:13:45.366Z,15.40
2022-08-19T21:16:47.934Z,14.40
2022-08-19T21:19:50.755Z,13.45
2022-08-19T21:22:53.293Z,16.07
2022-08-19T21:25:58.288Z,12.27
2022-08-19T21:29:00.951Z,9.90
2022-08-19T21:32:04.447Z,11.88
2022-08-19T21:35:07.126Z,14.07
2022-08-19T21:38:10.133Z,14.23
2022-08-19T21:41:12.786Z,9.65
2022-08-19T21:44:15.610Z,12.63
2022-08-19T21:47:18.169Z,12.60
2022-08-19T21:50:22.451Z,13.15
2022-08-19T21:53:31.538Z,15.43
2022-08-19T21:56:40.107Z,13.57
2022-08-19T21:59:43.724Z,15.80
2022-08-19T22:02:46.828Z,10.90
2022-08-19T22:05:50.879Z,16.37
2022-08-19T22:08:56.211Z,14.43
2022-08-19T22:11:59.143Z,13.20
2022-08-19T22:15:02.122Z,12.70
2022-08-19T22:18:06.103Z,12.88
2022-08-19T22:21:11.948Z,13.50
2022-08-19T22:24:15.143Z,11.53
2022-08-19T22:27:17.903Z,18.80
2022-08-19T22:30:23.348Z,21.17
2022-08-19T22:33:27.781Z,15.07
2022-08-19T22:36:31.769Z,13.15
2022-08-19T22:39:35.826Z,14.43
2022-08-19T22:42:39.224Z,15.13
2022-08-19T22:45:42.598Z,14.65
2022-08-19T22:48:46.679Z,13.30
2022-08-19T22:52:07.865Z,12.18
2022-08-19T22:55:10.682Z,9.80
2022-08-19T22:58:13.196Z,11.20
2022-08-19T23:01:27.589Z,14.43
2022-08-19T23:04:32.964Z,16.83
2022-08-19T23:07:36.912Z,14.90
2022-08-19T23:10:39.741Z,16.03
2022-08-19T23:13:42.646Z,14.63
2022-08-19T23:16:50.818Z,17.50
2022-08-19T23:19:54.613Z,12.88
2022-08-19T23:22:57.945Z,12.25
2022-08-19T23:26:00.692Z,17.27
2022-08-19T23:29:23.235Z,13.20
2022-08-19T23:32:26.123Z,15.82
2022-08-19T23:35:33.586Z,20.48
2022-08-19T23:38:36.464Z,12.23
2022-08-19T23:41:39.126Z,14.70
2022-08-19T23:44:51.876Z,14.40
2022-08-19T23:47:55.918Z,14.48
2022-08-19T23:51:10.269Z,19.02
2022-08-19T23:54:12.930Z,16.12
2022-08-19T23:57:15.861Z,15.47
